sensor_id;sensor_type;location;lat;lon;timestamp;P1;durP1;ratioP1;P2;durP2;ratioP2
80578;SDS011;69939;52.402;6.608;2023-07-20T00:02:24;5.55;;;3.30;;
80578;SDS011;69939;52.402;6.608;2023-07-20T00:04:54;5.57;;;3.45;;
80578;SDS011;69939;52.402;6.608;2023-07-20T00:07:23;2.65;;;2.42;;
80578;SDS011;69939;52.402;6.608;2023-07-20T00:09:52;3.55;;;2.63;;
80578;SDS011;69939;52.402;6.608;2023-07-20T00:12:24;5.00;;;3.53;;
80578;SDS011;69939;52.402;6.608;2023-07-20T00:14:54;4.65;;;2.85;;
80578;SDS011;69939;52.402;6.608;2023-07-20T00:17:23;2.67;;;1.95;;
80578;SDS011;69939;52.402;6.608;2023-07-20T00:19:52;2.03;;;1.52;;
80578;SDS011;69939;52.402;6.608;2023-07-20T00:22:21;2.45;;;1.98;;
80578;SDS011;69939;52.402;6.608;2023-07-20T00:24:51;2.35;;;2.15;;
80578;SDS011;69939;52.402;6.608;2023-07-20T00:27:20;3.83;;;2.85;;
80578;SDS011;69939;52.402;6.608;2023-07-20T00:29:52;4.40;;;2.78;;
80578;SDS011;69939;52.402;6.608;2023-07-20T00:32:21;2.90;;;2.67;;
80578;SDS011;69939;52.402;6.608;2023-07-20T00:34:51;3.53;;;3.22;;
80578;SDS011;69939;52.402;6.608;2023-07-20T00:37:20;2.40;;;1.93;;
80578;SDS011;69939;52.402;6.608;2023-07-20T00:39:50;4.90;;;3.53;;
80578;SDS011;69939;52.402;6.608;2023-07-20T00:42:20;4.20;;;3.75;;
80578;SDS011;69939;52.402;6.608;2023-07-20T00:44:52;3.20;;;2.53;;
80578;SDS011;69939;52.402;6.608;2023-07-20T00:47:22;3.60;;;3.22;;
80578;SDS011;69939;52.402;6.608;2023-07-20T00:49:51;3.83;;;3.00;;
80578;SDS011;69939;52.402;6.608;2023-07-20T00:52:22;3.50;;;3.20;;
80578;SDS011;69939;52.402;6.608;2023-07-20T00:54:54;4.53;;;3.40;;
80578;SDS011;69939;52.402;6.608;2023-07-20T00:57:24;3.65;;;2.58;;
80578;SDS011;69939;52.402;6.608;2023-07-20T00:59:57;3.47;;;2.53;;
80578;SDS011;69939;52.402;6.608;2023-07-20T01:02:27;4.20;;;2.72;;
80578;SDS011;69939;52.402;6.608;2023-07-20T01:04:56;2.28;;;1.80;;
80578;SDS011;69939;52.402;6.608;2023-07-20T01:07:26;3.33;;;2.75;;
80578;SDS011;69939;52.402;6.608;2023-07-20T01:10:05;3.30;;;2.97;;
80578;SDS011;69939;52.402;6.608;2023-07-20T01:12:46;3.15;;;2.63;;
80578;SDS011;69939;52.402;6.608;2023-07-20T01:15:22;2.65;;;2.45;;
80578;SDS011;69939;52.402;6.608;2023-07-20T01:17:52;4.25;;;2.90;;
80578;SDS011;69939;52.402;6.608;2023-07-20T01:23:01;3.13;;;2.50;;
80578;SDS011;69939;52.402;6.608;2023-07-20T01:26:08;3.72;;;2.53;;
80578;SDS011;69939;52.402;6.608;2023-07-20T01:32:14;4.82;;;2.65;;
80578;SDS011;69939;52.402;6.608;2023-07-20T01:34:47;3.10;;;2.83;;
80578;SDS011;69939;52.402;6.608;2023-07-20T01:37:22;6.53;;;3.85;;
80578;SDS011;69939;52.402;6.608;2023-07-20T01:39:54;3.45;;;2.90;;
80578;SDS011;69939;52.402;6.608;2023-07-20T01:42:25;3.80;;;2.75;;
80578;SDS011;69939;52.402;6.608;2023-07-20T01:44:55;5.00;;;3.30;;
80578;SDS011;69939;52.402;6.608;2023-07-20T01:49:58;4.93;;;3.70;;
80578;SDS011;69939;52.402;6.608;2023-07-20T01:52:27;3.35;;;2.70;;
80578;SDS011;69939;52.402;6.608;2023-07-20T01:54:59;5.55;;;3.58;;
80578;SDS011;69939;52.402;6.608;2023-07-20T01:57:29;4.53;;;3.67;;
80578;SDS011;69939;52.402;6.608;2023-07-20T01:59:58;4.03;;;3.28;;
80578;SDS011;69939;52.402;6.608;2023-07-20T02:02:32;4.28;;;3.58;;
80578;SDS011;69939;52.402;6.608;2023-07-20T02:05:02;4.18;;;3.42;;
80578;SDS011;69939;52.402;6.608;2023-07-20T02:07:31;4.95;;;3.20;;
80578;SDS011;69939;52.402;6.608;2023-07-20T02:10:01;4.22;;;3.60;;
80578;SDS011;69939;52.402;6.608;2023-07-20T02:12:31;5.85;;;3.33;;
80578;SDS011;69939;52.402;6.608;2023-07-20T02:15:00;4.45;;;3.83;;
80578;SDS011;69939;52.402;6.608;2023-07-20T02:17:32;4.82;;;3.58;;
80578;SDS011;69939;52.402;6.608;2023-07-20T02:20:06;4.72;;;3.88;;
80578;SDS011;69939;52.402;6.608;2023-07-20T02:22:37;4.45;;;3.00;;
80578;SDS011;69939;52.402;6.608;2023-07-20T02:25:08;4.00;;;3.20;;
80578;SDS011;69939;52.402;6.608;2023-07-20T02:27:38;6.10;;;3.40;;
80578;SDS011;69939;52.402;6.608;2023-07-20T02:30:07;4.70;;;3.33;;
80578;SDS011;69939;52.402;6.608;2023-07-20T02:32:40;3.80;;;3.40;;
80578;SDS011;69939;52.402;6.608;2023-07-20T02:35:10;4.88;;;3.50;;
80578;SDS011;69939;52.402;6.608;2023-07-20T02:37:43;4.13;;;2.88;;
80578;SDS011;69939;52.402;6.608;2023-07-20T02:40:15;5.00;;;3.15;;
80578;SDS011;69939;52.402;6.608;2023-07-20T02:42:44;4.25;;;3.47;;
80578;SDS011;69939;52.402;6.608;2023-07-20T02:45:16;4.13;;;3.50;;
80578;SDS011;69939;52.402;6.608;2023-07-20T02:47:50;3.85;;;3.20;;
80578;SDS011;69939;52.402;6.608;2023-07-20T02:50:20;4.75;;;3.50;;
80578;SDS011;69939;52.402;6.608;2023-07-20T02:52:50;4.00;;;3.30;;
80578;SDS011;69939;52.402;6.608;2023-07-20T02:55:19;4.43;;;3.45;;
80578;SDS011;69939;52.402;6.608;2023-07-20T02:57:51;4.13;;;3.45;;
80578;SDS011;69939;52.402;6.608;2023-07-20T03:00:23;3.80;;;2.67;;
80578;SDS011;69939;52.402;6.608;2023-07-20T03:02:56;3.10;;;2.30;;
80578;SDS011;69939;52.402;6.608;2023-07-20T03:05:25;4.40;;;3.38;;
80578;SDS011;69939;52.402;6.608;2023-07-20T03:07:57;4.35;;;3.70;;
80578;SDS011;69939;52.402;6.608;2023-07-20T03:10:27;4.35;;;3.50;;
80578;SDS011;69939;52.402;6.608;2023-07-20T03:12:56;4.53;;;3.60;;
80578;SDS011;69939;52.402;6.608;2023-07-20T03:15:26;4.95;;;4.22;;
80578;SDS011;69939;52.402;6.608;2023-07-20T03:17:58;5.15;;;3.90;;
80578;SDS011;69939;52.402;6.608;2023-07-20T03:20:28;4.97;;;3.80;;
80578;SDS011;69939;52.402;6.608;2023-07-20T03:22:58;5.18;;;3.88;;
80578;SDS011;69939;52.402;6.608;2023-07-20T03:25:27;5.38;;;3.65;;
80578;SDS011;69939;52.402;6.608;2023-07-20T03:27:56;4.72;;;3.75;;
80578;SDS011;69939;52.402;6.608;2023-07-20T03:30:26;5.38;;;4.38;;
80578;SDS011;69939;52.402;6.608;2023-07-20T03:32:55;11.98;;;3.78;;
80578;SDS011;69939;52.402;6.608;2023-07-20T03:35:27;6.20;;;4.30;;
80578;SDS011;69939;52.402;6.608;2023-07-20T03:37:57;5.35;;;4.13;;
80578;SDS011;69939;52.402;6.608;2023-07-20T03:40:26;7.93;;;3.58;;
80578;SDS011;69939;52.402;6.608;2023-07-20T03:42:56;15.07;;;4.38;;
80578;SDS011;69939;52.402;6.608;2023-07-20T03:45:25;11.20;;;4.15;;
80578;SDS011;69939;52.402;6.608;2023-07-20T03:47:54;14.43;;;4.55;;
80578;SDS011;69939;52.402;6.608;2023-07-20T03:50:23;6.63;;;4.10;;
80578;SDS011;69939;52.402;6.608;2023-07-20T03:52:55;5.05;;;3.85;;
80578;SDS011;69939;52.402;6.608;2023-07-20T03:55:25;8.80;;;3.90;;
80578;SDS011;69939;52.402;6.608;2023-07-20T03:57:55;11.52;;;4.20;;
80578;SDS011;69939;52.402;6.608;2023-07-20T04:00:24;8.65;;;4.45;;
80578;SDS011;69939;52.402;6.608;2023-07-20T04:02:54;15.43;;;4.53;;
80578;SDS011;69939;52.402;6.608;2023-07-20T04:05:23;5.05;;;4.00;;
80578;SDS011;69939;52.402;6.608;2023-07-20T04:07:55;7.80;;;4.50;;
80578;SDS011;69939;52.402;6.608;2023-07-20T04:10:24;5.55;;;4.18;;
80578;SDS011;69939;52.402;6.608;2023-07-20T04:12:53;7.63;;;3.45;;
80578;SDS011;69939;52.402;6.608;2023-07-20T04:15:23;4.97;;;4.07;;
80578;SDS011;69939;52.402;6.608;2023-07-20T04:17:52;7.43;;;3.45;;
80578;SDS011;69939;52.402;6.608;2023-07-20T04:20:21;14.48;;;4.07;;
80578;SDS011;69939;52.402;6.608;2023-07-20T04:22:53;5.60;;;4.13;;
80578;SDS011;69939;52.402;6.608;2023-07-20T04:25:23;13.75;;;4.35;;
80578;SDS011;69939;52.402;6.608;2023-07-20T04:27:52;7.82;;;3.70;;
80578;SDS011;69939;52.402;6.608;2023-07-20T04:32:50;5.13;;;3.58;;
80578;SDS011;69939;52.402;6.608;2023-07-20T04:38:20;4.32;;;3.40;;
80578;SDS011;69939;52.402;6.608;2023-07-20T04:40:49;4.25;;;3.03;;
80578;SDS011;69939;52.402;6.608;2023-07-20T04:43:19;4.25;;;3.05;;
80578;SDS011;69939;52.402;6.608;2023-07-20T04:45:48;4.00;;;2.88;;
80578;SDS011;69939;52.402;6.608;2023-07-20T04:48:17;9.20;;;3.60;;
80578;SDS011;69939;52.402;6.608;2023-07-20T04:50:46;6.82;;;2.90;;
80578;SDS011;69939;52.402;6.608;2023-07-20T04:53:15;6.18;;;3.17;;
80578;SDS011;69939;52.402;6.608;2023-07-20T04:55:50;5.10;;;3.08;;
80578;SDS011;69939;52.402;6.608;2023-07-20T04:58:20;2.25;;;2.03;;
80578;SDS011;69939;52.402;6.608;2023-07-20T05:00:50;3.33;;;2.63;;
80578;SDS011;69939;52.402;6.608;2023-07-20T05:03:20;4.15;;;3.05;;
80578;SDS011;69939;52.402;6.608;2023-07-20T05:05:49;7.97;;;3.13;;
80578;SDS011;69939;52.402;6.608;2023-07-20T05:08:19;6.80;;;3.25;;
80578;SDS011;69939;52.402;6.608;2023-07-20T05:10:52;3.90;;;2.95;;
80578;SDS011;69939;52.402;6.608;2023-07-20T05:13:21;4.93;;;2.85;;
80578;SDS011;69939;52.402;6.608;2023-07-20T05:15:51;3.15;;;2.85;;
80578;SDS011;69939;52.402;6.608;2023-07-20T05:18:22;3.80;;;3.08;;
80578;SDS011;69939;52.402;6.608;2023-07-20T05:20:51;3.47;;;3.17;;
80578;SDS011;69939;52.402;6.608;2023-07-20T05:25:56;3.35;;;3.05;;
80578;SDS011;69939;52.402;6.608;2023-07-20T05:28:27;3.58;;;3.13;;
80578;SDS011;69939;52.402;6.608;2023-07-20T05:30:56;6.78;;;3.55;;
80578;SDS011;69939;52.402;6.608;2023-07-20T05:33:25;3.47;;;2.90;;
80578;SDS011;69939;52.402;6.608;2023-07-20T05:35:54;3.40;;;2.67;;
80578;SDS011;69939;52.402;6.608;2023-07-20T05:38:23;4.00;;;2.88;;
80578;SDS011;69939;52.402;6.608;2023-07-20T05:43:29;2.25;;;2.05;;
80578;SDS011;69939;52.402;6.608;2023-07-20T05:45:59;3.47;;;2.17;;
80578;SDS011;69939;52.402;6.608;2023-07-20T05:48:28;3.33;;;2.67;;
80578;SDS011;69939;52.402;6.608;2023-07-20T05:50:57;7.65;;;2.67;;
80578;SDS011;69939;52.402;6.608;2023-07-20T05:53:26;2.88;;;2.58;;
80578;SDS011;69939;52.402;6.608;2023-07-20T05:55:58;2.20;;;2.00;;
80578;SDS011;69939;52.402;6.608;2023-07-20T05:58:28;3.20;;;2.78;;
80578;SDS011;69939;52.402;6.608;2023-07-20T06:00:57;2.10;;;1.90;;
80578;SDS011;69939;52.402;6.608;2023-07-20T06:03:27;1.90;;;1.80;;
80578;SDS011;69939;52.402;6.608;2023-07-20T06:05:57;2.85;;;2.03;;
80578;SDS011;69939;52.402;6.608;2023-07-20T06:08:29;2.30;;;2.10;;
80578;SDS011;69939;52.402;6.608;2023-07-20T06:11:01;2.45;;;1.98;;
80578;SDS011;69939;52.402;6.608;2023-07-20T06:13:30;2.20;;;2.00;;
80578;SDS011;69939;52.402;6.608;2023-07-20T06:16:00;3.38;;;2.30;;
80578;SDS011;69939;52.402;6.608;2023-07-20T06:18:29;1.85;;;1.73;;
80578;SDS011;69939;52.402;6.608;2023-07-20T06:20:58;2.40;;;2.10;;
80578;SDS011;69939;52.402;6.608;2023-07-20T06:23:27;2.15;;;1.95;;
80578;SDS011;69939;52.402;6.608;2023-07-20T06:25:57;3.63;;;2.13;;
80578;SDS011;69939;52.402;6.608;2023-07-20T06:28:28;2.78;;;2.58;;
80578;SDS011;69939;52.402;6.608;2023-07-20T06:31:00;3.50;;;2.30;;
80578;SDS011;69939;52.402;6.608;2023-07-20T06:33:30;3.80;;;1.70;;
80578;SDS011;69939;52.402;6.608;2023-07-20T06:35:59;2.10;;;2.00;;
80578;SDS011;69939;52.402;6.608;2023-07-20T06:38:28;2.47;;;2.35;;
80578;SDS011;69939;52.402;6.608;2023-07-20T06:40:57;2.50;;;2.30;;
80578;SDS011;69939;52.402;6.608;2023-07-20T06:43:29;2.72;;;2.42;;
80578;SDS011;69939;52.402;6.608;2023-07-20T06:45:58;2.78;;;1.80;;
80578;SDS011;69939;52.402;6.608;2023-07-20T06:48:28;2.08;;;1.88;;
80578;SDS011;69939;52.402;6.608;2023-07-20T06:50:57;1.80;;;1.70;;
80578;SDS011;69939;52.402;6.608;2023-07-20T06:53:26;1.42;;;1.33;;
80578;SDS011;69939;52.402;6.608;2023-07-20T06:55:55;1.52;;;1.42;;
80578;SDS011;69939;52.402;6.608;2023-07-20T06:58:25;1.25;;;1.25;;
80578;SDS011;69939;52.402;6.608;2023-07-20T07:00:56;1.58;;;1.48;;
80578;SDS011;69939;52.402;6.608;2023-07-20T07:03:25;2.67;;;1.30;;
80578;SDS011;69939;52.402;6.608;2023-07-20T07:05:55;1.10;;;1.00;;
80578;SDS011;69939;52.402;6.608;2023-07-20T07:08:26;1.55;;;0.90;;
80578;SDS011;69939;52.402;6.608;2023-07-20T07:10:55;0.80;;;0.80;;
80578;SDS011;69939;52.402;6.608;2023-07-20T07:13:24;1.15;;;0.80;;
80578;SDS011;69939;52.402;6.608;2023-07-20T07:15:53;1.75;;;1.38;;
80578;SDS011;69939;52.402;6.608;2023-07-20T07:18:25;1.20;;;1.05;;
80578;SDS011;69939;52.402;6.608;2023-07-20T07:20:54;1.55;;;1.02;;
80578;SDS011;69939;52.402;6.608;2023-07-20T07:23:23;1.15;;;0.70;;
80578;SDS011;69939;52.402;6.608;2023-07-20T07:25:52;1.80;;;0.90;;
80578;SDS011;69939;52.402;6.608;2023-07-20T07:28:22;1.58;;;1.48;;
80578;SDS011;69939;52.402;6.608;2023-07-20T07:30:51;2.67;;;1.00;;
80578;SDS011;69939;52.402;6.608;2023-07-20T07:33:20;2.70;;;0.95;;
80578;SDS011;69939;52.402;6.608;2023-07-20T07:35:52;2.05;;;1.05;;
80578;SDS011;69939;52.402;6.608;2023-07-20T07:38:21;1.48;;;0.55;;
80578;SDS011;69939;52.402;6.608;2023-07-20T07:40:51;2.45;;;0.80;;
80578;SDS011;69939;52.402;6.608;2023-07-20T07:43:20;1.30;;;1.25;;
80578;SDS011;69939;52.402;6.608;2023-07-20T07:45:49;1.20;;;1.00;;
80578;SDS011;69939;52.402;6.608;2023-07-20T07:48:22;0.95;;;0.88;;
80578;SDS011;69939;52.402;6.608;2023-07-20T07:50:54;1.42;;;1.20;;
80578;SDS011;69939;52.402;6.608;2023-07-20T07:53:23;1.48;;;1.33;;
80578;SDS011;69939;52.402;6.608;2023-07-20T07:55:53;1.88;;;1.38;;
80578;SDS011;69939;52.402;6.608;2023-07-20T07:58:22;1.58;;;1.38;;
80578;SDS011;69939;52.402;6.608;2023-07-20T08:00:51;1.00;;;0.65;;
80578;SDS011;69939;52.402;6.608;2023-07-20T08:03:21;0.95;;;0.80;;
80578;SDS011;69939;52.402;6.608;2023-07-20T08:05:54;1.52;;;0.70;;
80578;SDS011;69939;52.402;6.608;2023-07-20T08:08:24;1.15;;;1.10;;
80578;SDS011;69939;52.402;6.608;2023-07-20T08:10:54;1.85;;;0.80;;
80578;SDS011;69939;52.402;6.608;2023-07-20T08:13:23;2.10;;;1.33;;
80578;SDS011;69939;52.402;6.608;2023-07-20T08:15:52;0.98;;;0.85;;
80578;SDS011;69939;52.402;6.608;2023-07-20T08:18:21;1.33;;;1.23;;
80578;SDS011;69939;52.402;6.608;2023-07-20T08:20:51;2.90;;;0.80;;
80578;SDS011;69939;52.402;6.608;2023-07-20T08:23:22;2.88;;;1.80;;
80578;SDS011;69939;52.402;6.608;2023-07-20T08:25:52;1.45;;;1.10;;
80578;SDS011;69939;52.402;6.608;2023-07-20T08:28:21;0.85;;;0.85;;
80578;SDS011;69939;52.402;6.608;2023-07-20T08:30:51;1.20;;;1.17;;
80578;SDS011;69939;52.402;6.608;2023-07-20T08:33:20;0.98;;;0.90;;
80578;SDS011;69939;52.402;6.608;2023-07-20T08:35:50;1.23;;;1.20;;
80578;SDS011;69939;52.402;6.608;2023-07-20T08:38:23;1.60;;;1.00;;
80578;SDS011;69939;52.402;6.608;2023-07-20T08:40:52;1.10;;;1.00;;
80578;SDS011;69939;52.402;6.608;2023-07-20T08:43:22;1.20;;;0.90;;
80578;SDS011;69939;52.402;6.608;2023-07-20T08:45:52;1.92;;;0.80;;
80578;SDS011;69939;52.402;6.608;2023-07-20T08:48:24;1.20;;;0.82;;
80578;SDS011;69939;52.402;6.608;2023-07-20T08:50:56;1.38;;;0.80;;
80578;SDS011;69939;52.402;6.608;2023-07-20T08:53:29;0.90;;;0.90;;
80578;SDS011;69939;52.402;6.608;2023-07-20T08:56:01;1.05;;;0.70;;
80578;SDS011;69939;52.402;6.608;2023-07-20T08:58:32;1.23;;;1.13;;
80578;SDS011;69939;52.402;6.608;2023-07-20T09:01:04;1.73;;;0.70;;
80578;SDS011;69939;52.402;6.608;2023-07-20T09:03:37;0.73;;;0.70;;
80578;SDS011;69939;52.402;6.608;2023-07-20T09:06:10;1.40;;;1.23;;
80578;SDS011;69939;52.402;6.608;2023-07-20T09:08:44;1.45;;;1.25;;
80578;SDS011;69939;52.402;6.608;2023-07-20T09:11:13;1.20;;;1.10;;
80578;SDS011;69939;52.402;6.608;2023-07-20T09:13:43;0.90;;;0.60;;
80578;SDS011;69939;52.402;6.608;2023-07-20T09:16:13;1.83;;;0.95;;
80578;SDS011;69939;52.402;6.608;2023-07-20T09:18:42;1.02;;;1.00;;
80578;SDS011;69939;52.402;6.608;2023-07-20T09:21:11;1.10;;;1.00;;
80578;SDS011;69939;52.402;6.608;2023-07-20T09:26:25;1.55;;;1.33;;
80578;SDS011;69939;52.402;6.608;2023-07-20T09:28:54;1.98;;;1.10;;
80578;SDS011;69939;52.402;6.608;2023-07-20T09:31:23;1.10;;;0.82;;
80578;SDS011;69939;52.402;6.608;2023-07-20T09:33:52;1.27;;;1.17;;
80578;SDS011;69939;52.402;6.608;2023-07-20T09:36:24;1.58;;;0.80;;
80578;SDS011;69939;52.402;6.608;2023-07-20T09:38:59;1.08;;;1.00;;
80578;SDS011;69939;52.402;6.608;2023-07-20T09:41:29;1.30;;;1.13;;
80578;SDS011;69939;52.402;6.608;2023-07-20T09:43:58;0.70;;;0.70;;
80578;SDS011;69939;52.402;6.608;2023-07-20T09:46:40;1.13;;;0.70;;
80578;SDS011;69939;52.402;6.608;2023-07-20T09:49:10;2.25;;;0.70;;
80578;SDS011;69939;52.402;6.608;2023-07-20T09:51:42;1.00;;;0.82;;
80578;SDS011;69939;52.402;6.608;2023-07-20T09:54:15;1.48;;;0.90;;
80578;SDS011;69939;52.402;6.608;2023-07-20T09:56:46;2.70;;;0.95;;
80578;SDS011;69939;52.402;6.608;2023-07-20T09:59:19;0.63;;;0.52;;
80578;SDS011;69939;52.402;6.608;2023-07-20T10:01:48;1.38;;;0.80;;
80578;SDS011;69939;52.402;6.608;2023-07-20T10:04:22;1.10;;;0.80;;
80578;SDS011;69939;52.402;6.608;2023-07-20T10:06:53;0.70;;;0.70;;
80578;SDS011;69939;52.402;6.608;2023-07-20T10:09:28;1.15;;;1.05;;
80578;SDS011;69939;52.402;6.608;2023-07-20T10:11:58;0.90;;;0.90;;
80578;SDS011;69939;52.402;6.608;2023-07-20T10:14:29;0.68;;;0.50;;
80578;SDS011;69939;52.402;6.608;2023-07-20T10:17:01;1.38;;;0.95;;
80578;SDS011;69939;52.402;6.608;2023-07-20T10:19:34;1.38;;;1.25;;
80578;SDS011;69939;52.402;6.608;2023-07-20T10:22:13;0.85;;;0.85;;
80578;SDS011;69939;52.402;6.608;2023-07-20T10:24:49;1.00;;;1.00;;
80578;SDS011;69939;52.402;6.608;2023-07-20T10:27:19;1.20;;;0.60;;
80578;SDS011;69939;52.402;6.608;2023-07-20T10:29:49;0.77;;;0.77;;
80578;SDS011;69939;52.402;6.608;2023-07-20T10:32:21;0.30;;;0.30;;
80578;SDS011;69939;52.402;6.608;2023-07-20T10:34:51;0.75;;;0.75;;
80578;SDS011;69939;52.402;6.608;2023-07-20T10:40:28;0.65;;;0.60;;
80578;SDS011;69939;52.402;6.608;2023-07-20T10:43:03;1.15;;;0.60;;
80578;SDS011;69939;52.402;6.608;2023-07-20T10:45:35;1.23;;;0.85;;
80578;SDS011;69939;52.402;6.608;2023-07-20T10:48:14;1.27;;;0.80;;
80578;SDS011;69939;52.402;6.608;2023-07-20T10:50:45;0.98;;;0.60;;
80578;SDS011;69939;52.402;6.608;2023-07-20T10:53:38;0.45;;;0.30;;
80578;SDS011;69939;52.402;6.608;2023-07-20T10:56:11;0.77;;;0.70;;
80578;SDS011;69939;52.402;6.608;2023-07-20T10:58:42;1.98;;;0.88;;
80578;SDS011;69939;52.402;6.608;2023-07-20T11:01:12;0.52;;;0.50;;
80578;SDS011;69939;52.402;6.608;2023-07-20T11:03:48;0.95;;;0.70;;
80578;SDS011;69939;52.402;6.608;2023-07-20T11:06:29;0.52;;;0.52;;
80578;SDS011;69939;52.402;6.608;2023-07-20T11:09:04;1.52;;;0.90;;
80578;SDS011;69939;52.402;6.608;2023-07-20T11:11:42;0.90;;;0.73;;
80578;SDS011;69939;52.402;6.608;2023-07-20T11:14:20;0.80;;;0.80;;
80578;SDS011;69939;52.402;6.608;2023-07-20T11:16:51;1.30;;;0.77;;
80578;SDS011;69939;52.402;6.608;2023-07-20T11:19:22;1.08;;;0.98;;
80578;SDS011;69939;52.402;6.608;2023-07-20T11:21:53;1.20;;;0.70;;
80578;SDS011;69939;52.402;6.608;2023-07-20T11:24:25;0.80;;;0.80;;
80578;SDS011;69939;52.402;6.608;2023-07-20T11:26:57;0.40;;;0.40;;
80578;SDS011;69939;52.402;6.608;2023-07-20T11:29:26;1.67;;;0.75;;
80578;SDS011;69939;52.402;6.608;2023-07-20T11:31:55;1.13;;;0.50;;
80578;SDS011;69939;52.402;6.608;2023-07-20T11:34:26;0.90;;;0.50;;
80578;SDS011;69939;52.402;6.608;2023-07-20T11:36:55;0.95;;;0.60;;
80578;SDS011;69939;52.402;6.608;2023-07-20T11:39:25;0.40;;;0.40;;
80578;SDS011;69939;52.402;6.608;2023-07-20T11:41:57;0.75;;;0.43;;
80578;SDS011;69939;52.402;6.608;2023-07-20T11:44:26;0.70;;;0.68;;
80578;SDS011;69939;52.402;6.608;2023-07-20T11:47:00;0.77;;;0.77;;
80578;SDS011;69939;52.402;6.608;2023-07-20T11:49:30;0.75;;;0.50;;
80578;SDS011;69939;52.402;6.608;2023-07-20T11:52:05;2.63;;;0.98;;
80578;SDS011;69939;52.402;6.608;2023-07-20T11:54:37;0.88;;;0.88;;
80578;SDS011;69939;52.402;6.608;2023-07-20T11:57:17;1.83;;;1.10;;
80578;SDS011;69939;52.402;6.608;2023-07-20T11:59:54;1.00;;;0.98;;
80578;SDS011;69939;52.402;6.608;2023-07-20T12:02:26;0.40;;;0.40;;
80578;SDS011;69939;52.402;6.608;2023-07-20T12:04:56;0.60;;;0.60;;
80578;SDS011;69939;52.402;6.608;2023-07-20T12:07:26;1.10;;;1.00;;
80578;SDS011;69939;52.402;6.608;2023-07-20T12:10:03;0.57;;;0.57;;
80578;SDS011;69939;52.402;6.608;2023-07-20T12:12:37;1.17;;;0.65;;
80578;SDS011;69939;52.402;6.608;2023-07-20T12:15:16;0.68;;;0.50;;
80578;SDS011;69939;52.402;6.608;2023-07-20T12:17:52;0.80;;;0.80;;
80578;SDS011;69939;52.402;6.608;2023-07-20T12:20:25;1.27;;;1.00;;
80578;SDS011;69939;52.402;6.608;2023-07-20T12:22:58;0.97;;;0.53;;
80578;SDS011;69939;52.402;6.608;2023-07-20T12:28:19;2.35;;;1.10;;
80578;SDS011;69939;52.402;6.608;2023-07-20T12:30:48;1.30;;;1.20;;
80578;SDS011;69939;52.402;6.608;2023-07-20T12:33:21;1.73;;;1.00;;
80578;SDS011;69939;52.402;6.608;2023-07-20T12:35:51;1.60;;;1.50;;
80578;SDS011;69939;52.402;6.608;2023-07-20T12:38:21;1.20;;;1.10;;
80578;SDS011;69939;52.402;6.608;2023-07-20T12:40:50;1.00;;;1.00;;
80578;SDS011;69939;52.402;6.608;2023-07-20T12:43:22;1.10;;;1.00;;
80578;SDS011;69939;52.402;6.608;2023-07-20T12:45:52;1.52;;;1.30;;
80578;SDS011;69939;52.402;6.608;2023-07-20T12:48:21;1.27;;;0.93;;
80578;SDS011;69939;52.402;6.608;2023-07-20T12:50:51;1.50;;;1.40;;
80578;SDS011;69939;52.402;6.608;2023-07-20T12:53:20;1.42;;;1.30;;
80578;SDS011;69939;52.402;6.608;2023-07-20T12:55:50;1.55;;;1.10;;
80578;SDS011;69939;52.402;6.608;2023-07-20T12:58:21;1.48;;;1.13;;
80578;SDS011;69939;52.402;6.608;2023-07-20T13:00:51;0.90;;;0.73;;
80578;SDS011;69939;52.402;6.608;2023-07-20T13:03:21;0.90;;;0.90;;
80578;SDS011;69939;52.402;6.608;2023-07-20T13:05:50;0.80;;;0.70;;
80578;SDS011;69939;52.402;6.608;2023-07-20T13:08:19;2.25;;;1.00;;
80578;SDS011;69939;52.402;6.608;2023-07-20T13:10:50;0.77;;;0.65;;
80578;SDS011;69939;52.402;6.608;2023-07-20T13:13:22;1.98;;;1.17;;
80578;SDS011;69939;52.402;6.608;2023-07-20T13:15:51;0.98;;;0.90;;
80578;SDS011;69939;52.402;6.608;2023-07-20T13:18:20;1.73;;;1.25;;
80578;SDS011;69939;52.402;6.608;2023-07-20T13:20:49;1.55;;;1.45;;
80578;SDS011;69939;52.402;6.608;2023-07-20T13:23:19;1.13;;;0.90;;
80578;SDS011;69939;52.402;6.608;2023-07-20T13:25:48;1.88;;;1.40;;
80578;SDS011;69939;52.402;6.608;2023-07-20T13:28:17;1.20;;;1.10;;
80578;SDS011;69939;52.402;6.608;2023-07-20T13:30:48;3.95;;;1.00;;
80578;SDS011;69939;52.402;6.608;2023-07-20T13:33:18;1.50;;;0.80;;
80578;SDS011;69939;52.402;6.608;2023-07-20T13:35:47;1.05;;;0.93;;
80578;SDS011;69939;52.402;6.608;2023-07-20T13:38:16;1.25;;;0.65;;
80578;SDS011;69939;52.402;6.608;2023-07-20T13:40:45;1.27;;;0.70;;
80578;SDS011;69939;52.402;6.608;2023-07-20T13:43:14;1.85;;;1.33;;
80578;SDS011;69939;52.402;6.608;2023-07-20T13:45:43;0.77;;;0.75;;
80578;SDS011;69939;52.402;6.608;2023-07-20T13:48:15;1.20;;;1.10;;
80578;SDS011;69939;52.402;6.608;2023-07-20T13:50:48;1.10;;;1.00;;
80578;SDS011;69939;52.402;6.608;2023-07-20T13:53:19;2.80;;;0.90;;
80578;SDS011;69939;52.402;6.608;2023-07-20T13:55:48;0.80;;;0.80;;
80578;SDS011;69939;52.402;6.608;2023-07-20T13:58:18;2.20;;;1.30;;
80578;SDS011;69939;52.402;6.608;2023-07-20T14:00:50;1.25;;;0.93;;
80578;SDS011;69939;52.402;6.608;2023-07-20T14:03:22;1.17;;;0.80;;
80578;SDS011;69939;52.402;6.608;2023-07-20T14:05:51;0.70;;;0.70;;
80578;SDS011;69939;52.402;6.608;2023-07-20T14:08:21;1.02;;;0.90;;
80578;SDS011;69939;52.402;6.608;2023-07-20T14:10:58;1.23;;;1.10;;
80578;SDS011;69939;52.402;6.608;2023-07-20T14:13:28;0.75;;;0.70;;
80578;SDS011;69939;52.402;6.608;2023-07-20T14:15:57;1.20;;;0.63;;
80578;SDS011;69939;52.402;6.608;2023-07-20T14:18:29;1.40;;;1.00;;
80578;SDS011;69939;52.402;6.608;2023-07-20T14:20:59;1.35;;;1.08;;
80578;SDS011;69939;52.402;6.608;2023-07-20T14:23:30;1.38;;;1.00;;
80578;SDS011;69939;52.402;6.608;2023-07-20T14:25:59;1.08;;;1.00;;
80578;SDS011;69939;52.402;6.608;2023-07-20T14:28:30;0.73;;;0.73;;
80578;SDS011;69939;52.402;6.608;2023-07-20T14:30:59;2.35;;;0.73;;
80578;SDS011;69939;52.402;6.608;2023-07-20T14:33:31;1.20;;;1.10;;
80578;SDS011;69939;52.402;6.608;2023-07-20T14:36:00;1.20;;;1.10;;
80578;SDS011;69939;52.402;6.608;2023-07-20T14:38:30;1.65;;;1.00;;
80578;SDS011;69939;52.402;6.608;2023-07-20T14:41:02;2.10;;;1.40;;
80578;SDS011;69939;52.402;6.608;2023-07-20T14:43:31;1.02;;;0.93;;
80578;SDS011;69939;52.402;6.608;2023-07-20T14:46:01;0.90;;;0.82;;
80578;SDS011;69939;52.402;6.608;2023-07-20T14:48:33;1.02;;;0.93;;
80578;SDS011;69939;52.402;6.608;2023-07-20T14:51:02;1.10;;;1.08;;
80578;SDS011;69939;52.402;6.608;2023-07-20T14:53:31;1.90;;;1.30;;
80578;SDS011;69939;52.402;6.608;2023-07-20T14:56:00;1.67;;;0.90;;
80578;SDS011;69939;52.402;6.608;2023-07-20T14:58:31;1.65;;;1.55;;
80578;SDS011;69939;52.402;6.608;2023-07-20T15:01:00;1.15;;;0.90;;
80578;SDS011;69939;52.402;6.608;2023-07-20T15:03:29;1.08;;;0.70;;
80578;SDS011;69939;52.402;6.608;2023-07-20T15:06:01;1.52;;;1.02;;
80578;SDS011;69939;52.402;6.608;2023-07-20T15:08:30;1.05;;;0.80;;
80578;SDS011;69939;52.402;6.608;2023-07-20T15:11:00;2.22;;;1.30;;
80578;SDS011;69939;52.402;6.608;2023-07-20T15:13:29;1.25;;;1.10;;
80578;SDS011;69939;52.402;6.608;2023-07-20T15:15:58;2.80;;;0.82;;
80578;SDS011;69939;52.402;6.608;2023-07-20T15:18:27;1.10;;;1.00;;
80578;SDS011;69939;52.402;6.608;2023-07-20T15:20:59;2.63;;;0.93;;
80578;SDS011;69939;52.402;6.608;2023-07-20T15:23:28;1.35;;;0.80;;
80578;SDS011;69939;52.402;6.608;2023-07-20T15:25:57;0.80;;;0.75;;
80578;SDS011;69939;52.402;6.608;2023-07-20T15:28:26;1.35;;;0.90;;
80578;SDS011;69939;52.402;6.608;2023-07-20T15:30:59;2.80;;;0.90;;
80578;SDS011;69939;52.402;6.608;2023-07-20T15:33:28;2.95;;;1.13;;
80578;SDS011;69939;52.402;6.608;2023-07-20T15:36:00;0.82;;;0.63;;
80578;SDS011;69939;52.402;6.608;2023-07-20T15:38:30;1.67;;;1.30;;